sensor_id;sensor_type;location;lat;lon;timestamp;pressure;altitude;pressure_sealevel;temperature;humidity
42067;BME280;27734;47.028;28.820;2023-06-19T00:01:51;100166.50;;;19.98;82.96
42067;BME280;27734;47.028;28.820;2023-06-19T00:04:22;100162.95;;;19.94;83.10
42067;BME280;27734;47.028;28.820;2023-06-19T00:06:53;100164.77;;;19.90;83.28
42067;BME280;27734;47.028;28.820;2023-06-19T00:09:25;100176.32;;;19.88;83.67
42067;BME280;27734;47.028;28.820;2023-06-19T00:11:56;100174.59;;;19.85;84.63
42067;BME280;27734;47.028;28.820;2023-06-19T00:14:28;100173.70;;;19.82;83.83
42067;BME280;27734;47.028;28.820;2023-06-19T00:16:59;100179.92;;;19.84;84.48
42067;BME280;27734;47.028;28.820;2023-06-19T00:19:31;100179.94;;;19.82;84.01
42067;BME280;27734;47.028;28.820;2023-06-19T00:22:06;100179.95;;;19.79;83.01
42067;BME280;27734;47.028;28.820;2023-06-19T00:24:37;100185.28;;;19.79;83.09
42067;BME280;27734;47.028;28.820;2023-06-19T00:27:09;100184.38;;;19.79;84.12
42067;BME280;27734;47.028;28.820;2023-06-19T00:29:40;100182.61;;;19.81;83.78
42067;BME280;27734;47.028;28.820;2023-06-19T00:32:11;100186.14;;;19.81;83.76
42067;BME280;27734;47.028;28.820;2023-06-19T00:34:45;100182.61;;;19.81;83.37
42067;BME280;27734;47.028;28.820;2023-06-19T00:37:16;100187.02;;;19.82;83.66
42067;BME280;27734;47.028;28.820;2023-06-19T00:39:48;100179.94;;;19.81;83.14
42067;BME280;27734;47.028;28.820;2023-06-19T00:42:19;100185.28;;;19.79;83.41
42067;BME280;27734;47.028;28.820;2023-06-19T00:44:50;100180.85;;;19.77;83.03
42067;BME280;27734;47.028;28.820;2023-06-19T00:47:21;100189.69;;;19.75;84.23
42067;BME280;27734;47.028;28.820;2023-06-19T00:49:53;100189.70;;;19.72;84.23
42067;BME280;27734;47.028;28.820;2023-06-19T00:52:25;100182.66;;;19.68;83.59
42067;BME280;27734;47.028;28.820;2023-06-19T00:54:56;100189.74;;;19.66;83.87
42067;BME280;27734;47.028;28.820;2023-06-19T00:57:27;100188.89;;;19.63;83.92
42067;BME280;27734;47.028;28.820;2023-06-19T00:59:59;100191.56;;;19.61;83.50
42067;BME280;27734;47.028;28.820;2023-06-19T01:02:30;100191.57;;;19.60;84.10
42067;BME280;27734;47.028;28.820;2023-06-19T01:05:02;100194.24;;;19.58;83.83
42067;BME280;27734;47.028;28.820;2023-06-19T01:07:40;100193.37;;;19.56;83.77
42067;BME280;27734;47.028;28.820;2023-06-19T01:10:16;100204.03;;;19.54;84.36
42067;BME280;27734;47.028;28.820;2023-06-19T01:12:58;100204.05;;;19.51;84.58
42067;BME280;27734;47.028;28.820;2023-06-19T01:15:31;100199.62;;;19.49;84.14
42067;BME280;27734;47.028;28.820;2023-06-19T01:18:03;100203.19;;;19.48;84.04
42067;BME280;27734;47.028;28.820;2023-06-19T01:20:35;100209.41;;;19.45;84.21
42067;BME280;27734;47.028;28.820;2023-06-19T01:23:11;100214.72;;;19.45;84.14
42067;BME280;27734;47.028;28.820;2023-06-19T01:25:42;100220.94;;;19.43;84.18
42067;BME280;27734;47.028;28.820;2023-06-19T01:28:14;100220.07;;;19.40;84.07
42067;BME280;27734;47.028;28.820;2023-06-19T01:30:46;100217.41;;;19.40;84.58
42067;BME280;27734;47.028;28.820;2023-06-19T01:33:23;100217.42;;;19.39;84.99
42067;BME280;27734;47.028;28.820;2023-06-19T01:35:58;100208.56;;;19.37;84.75
42067;BME280;27734;47.028;28.820;2023-06-19T01:38:32;100212.11;;;19.34;84.68
42067;BME280;27734;47.028;28.820;2023-06-19T01:41:06;100214.78;;;19.34;85.07
42067;BME280;27734;47.028;28.820;2023-06-19T01:43:38;100223.64;;;19.33;85.66
42067;BME280;27734;47.028;28.820;2023-06-19T01:46:09;100225.42;;;19.33;84.79
42067;BME280;27734;47.028;28.820;2023-06-19T01:48:41;100229.88;;;19.32;84.84
42067;BME280;27734;47.028;28.820;2023-06-19T01:51:12;100233.41;;;19.31;85.50
42067;BME280;27734;47.028;28.820;2023-06-19T01:53:43;100235.19;;;19.32;84.88
42067;BME280;27734;47.028;28.820;2023-06-19T01:56:15;100236.07;;;19.31;84.75
42067;BME280;27734;47.028;28.820;2023-06-19T01:58:46;100243.19;;;19.29;85.66
42067;BME280;27734;47.028;28.820;2023-06-19T02:01:17;100242.27;;;19.30;85.34
42067;BME280;27734;47.028;28.820;2023-06-19T02:03:48;100244.94;;;19.30;85.74
42067;BME280;27734;47.028;28.820;2023-06-19T02:06:20;100246.72;;;19.30;85.82
42067;BME280;27734;47.028;28.820;2023-06-19T02:08:52;100249.39;;;19.28;85.64
42067;BME280;27734;47.028;28.820;2023-06-19T02:11:23;100255.58;;;19.27;85.65
42067;BME280;27734;47.028;28.820;2023-06-19T02:13:56;100255.59;;;19.26;85.52
42067;BME280;27734;47.028;28.820;2023-06-19T02:16:28;100257.37;;;19.25;85.46
42067;BME280;27734;47.028;28.820;2023-06-19T02:19:00;100257.39;;;19.22;85.85
42067;BME280;27734;47.028;28.820;2023-06-19T02:21:31;100262.72;;;19.17;86.28
42067;BME280;27734;47.028;28.820;2023-06-19T02:24:02;100263.61;;;19.15;85.91
42067;BME280;27734;47.028;28.820;2023-06-19T02:26:34;100258.30;;;19.13;86.38
42067;BME280;27734;47.028;28.820;2023-06-19T02:29:06;100256.55;;;19.11;85.91
42067;BME280;27734;47.028;28.820;2023-06-19T02:31:37;100258.30;;;19.12;86.45
42067;BME280;27734;47.028;28.820;2023-06-19T02:34:09;100246.79;;;19.10;87.01
42067;BME280;27734;47.028;28.820;2023-06-19T02:36:41;100251.23;;;19.09;86.71
42067;BME280;27734;47.028;28.820;2023-06-19T02:39:12;100262.75;;;19.08;86.42
42067;BME280;27734;47.028;28.820;2023-06-19T02:41:44;100255.64;;;19.09;86.70
42067;BME280;27734;47.028;28.820;2023-06-19T02:44:16;100256.55;;;19.09;86.61
42067;BME280;27734;47.028;28.820;2023-06-19T02:46:47;100253.90;;;19.08;87.37
42067;BME280;27734;47.028;28.820;2023-06-19T02:49:19;100251.23;;;19.08;87.07
42067;BME280;27734;47.028;28.820;2023-06-19T02:51:50;100259.22;;;19.08;87.12
42067;BME280;27734;47.028;28.820;2023-06-19T02:54:21;100264.53;;;19.08;87.01
42067;BME280;27734;47.028;28.820;2023-06-19T02:56:52;100258.30;;;19.09;87.32
42067;BME280;27734;47.028;28.820;2023-06-19T02:59:24;100259.21;;;19.09;86.85
42067;BME280;27734;47.028;28.820;2023-06-19T03:01:55;100262.73;;;19.11;87.22
42067;BME280;27734;47.028;28.820;2023-06-19T03:04:26;100264.52;;;19.12;87.73
42067;BME280;27734;47.028;28.820;2023-06-19T03:06:59;100261.86;;;19.12;87.58
42067;BME280;27734;47.028;28.820;2023-06-19T03:09:32;100258.28;;;19.18;86.98
42067;BME280;27734;47.028;28.820;2023-06-19T03:12:04;100259.17;;;19.23;87.11
42067;BME280;27734;47.028;28.820;2023-06-19T03:14:36;100261.83;;;19.23;87.00
42067;BME280;27734;47.028;28.820;2023-06-19T03:17:07;100252.05;;;19.28;87.22
42067;BME280;27734;47.028;28.820;2023-06-19T03:19:38;100253.82;;;19.31;87.09
42067;BME280;27734;47.028;28.820;2023-06-19T03:22:10;100247.58;;;19.33;87.75
42067;BME280;27734;47.028;28.820;2023-06-19T03:24:41;100254.68;;;19.34;87.47
42067;BME280;27734;47.028;28.820;2023-06-19T03:27:24;100251.14;;;19.37;87.47
42067;BME280;27734;47.028;28.820;2023-06-19T03:29:57;100251.98;;;19.44;87.39
42067;BME280;27734;47.028;28.820;2023-06-19T03:32:35;100254.61;;;19.51;87.13
42067;BME280;27734;47.028;28.820;2023-06-19T03:35:08;100244.81;;;19.56;87.40
42067;BME280;27734;47.028;28.820;2023-06-19T03:37:43;100252.76;;;19.64;87.35
42067;BME280;27734;47.028;28.820;2023-06-19T03:40:15;100253.61;;;19.69;87.31
42067;BME280;27734;47.028;28.820;2023-06-19T03:42:48;100248.26;;;19.74;87.26
42067;BME280;27734;47.028;28.820;2023-06-19T03:45:19;100251.81;;;19.76;87.94
42067;BME280;27734;47.028;28.820;2023-06-19T03:47:50;100248.25;;;19.75;86.91
42067;BME280;27734;47.028;28.820;2023-06-19T03:50:21;100261.56;;;19.80;87.31
42067;BME280;27734;47.028;28.820;2023-06-19T03:52:52;100252.67;;;19.86;86.89
42067;BME280;27734;47.028;28.820;2023-06-19T03:55:24;100252.66;;;19.87;87.28
42067;BME280;27734;47.028;28.820;2023-06-19T03:57:55;100257.09;;;19.90;87.57
42067;BME280;27734;47.028;28.820;2023-06-19T04:00:27;100256.17;;;19.92;86.56
42067;BME280;27734;47.028;28.820;2023-06-19T04:02:58;100246.43;;;19.91;87.17
42067;BME280;27734;47.028;28.820;2023-06-19T04:05:29;100244.66;;;19.90;86.29
42067;BME280;27734;47.028;28.820;2023-06-19T04:08:01;100247.33;;;19.89;86.50
42067;BME280;27734;47.028;28.820;2023-06-19T04:10:33;100249.14;;;19.84;86.39
42067;BME280;27734;47.028;28.820;2023-06-19T04:13:05;100262.47;;;19.81;86.22
42067;BME280;27734;47.028;28.820;2023-06-19T04:15:36;100264.23;;;19.80;86.37
42067;BME280;27734;47.028;28.820;2023-06-19T04:18:08;100266.90;;;19.79;86.46
42067;BME280;27734;47.028;28.820;2023-06-19T04:20:40;100267.81;;;19.78;86.04
42067;BME280;27734;47.028;28.820;2023-06-19T04:23:12;100270.45;;;19.76;87.15
42067;BME280;27734;47.028;28.820;2023-06-19T04:25:43;100277.53;;;19.75;86.58
42067;BME280;27734;47.028;28.820;2023-06-19T04:28:15;100282.00;;;19.72;87.04
42067;BME280;27734;47.028;28.820;2023-06-19T04:30:46;100279.34;;;19.70;87.11
42067;BME280;27734;47.028;28.820;2023-06-19T04:33:17;100279.33;;;19.73;86.16
42067;BME280;27734;47.028;28.820;2023-06-19T04:35:51;100287.33;;;19.78;86.41
42067;BME280;27734;47.028;28.820;2023-06-19T04:38:22;100294.42;;;19.81;86.91
42067;BME280;27734;47.028;28.820;2023-06-19T04:40:54;100294.42;;;19.81;86.61
42067;BME280;27734;47.028;28.820;2023-06-19T04:43:27;100292.63;;;19.81;85.91
42067;BME280;27734;47.028;28.820;2023-06-19T04:45:58;100297.09;;;19.79;86.57
42067;BME280;27734;47.028;28.820;2023-06-19T04:48:30;100304.16;;;19.75;85.99
42067;BME280;27734;47.028;28.820;2023-06-19T04:51:01;100313.07;;;19.71;85.89
42067;BME280;27734;47.028;28.820;2023-06-19T04:53:32;100316.62;;;19.67;86.11
42067;BME280;27734;47.028;28.820;2023-06-19T04:56:04;100314.84;;;19.66;86.83
42067;BME280;27734;47.028;28.820;2023-06-19T04:58:35;100315.76;;;19.65;86.35
42067;BME280;27734;47.028;28.820;2023-06-19T05:01:08;100323.75;;;19.64;86.24
42067;BME280;27734;47.028;28.820;2023-06-19T05:03:40;100320.16;;;19.66;86.43
42067;BME280;27734;47.028;28.820;2023-06-19T05:06:12;100318.41;;;19.68;86.99
42067;BME280;27734;47.028;28.820;2023-06-19T05:08:43;100321.94;;;19.70;86.76
42067;BME280;27734;47.028;28.820;2023-06-19T05:11:15;100319.28;;;19.67;86.19
42067;BME280;27734;47.028;28.820;2023-06-19T05:13:46;100317.52;;;19.65;86.30
42067;BME280;27734;47.028;28.820;2023-06-19T05:16:17;100316.65;;;19.61;87.64
42067;BME280;27734;47.028;28.820;2023-06-19T05:18:49;100319.33;;;19.56;86.61
42067;BME280;27734;47.028;28.820;2023-06-19T05:21:21;100323.79;;;19.53;87.28
42067;BME280;27734;47.028;28.820;2023-06-19T05:23:52;100332.67;;;19.47;87.25
42067;BME280;27734;47.028;28.820;2023-06-19T05:26:23;100332.69;;;19.43;87.56
42067;BME280;27734;47.028;28.820;2023-06-19T05:28:56;100336.27;;;19.40;87.94
42067;BME280;27734;47.028;28.820;2023-06-19T05:31:27;100337.14;;;19.40;87.61
42067;BME280;27734;47.028;28.820;2023-06-19T05:33:58;100334.48;;;19.39;87.55
42067;BME280;27734;47.028;28.820;2023-06-19T05:36:29;100332.70;;;19.38;88.45
42067;BME280;27734;47.028;28.820;2023-06-19T05:39:01;100332.70;;;19.36;88.26
42067;BME280;27734;47.028;28.820;2023-06-19T05:41:32;100330.94;;;19.40;87.83
42067;BME280;27734;47.028;28.820;2023-06-19T05:44:06;100334.45;;;19.47;88.48
42067;BME280;27734;47.028;28.820;2023-06-19T05:46:37;100337.98;;;19.52;88.79
42067;BME280;27734;47.028;28.820;2023-06-19T05:49:09;100333.53;;;19.52;89.07
42067;BME280;27734;47.028;28.820;2023-06-19T05:51:43;100335.31;;;19.53;89.59
42067;BME280;27734;47.028;28.820;2023-06-19T05:54:15;100344.16;;;19.55;89.41
42067;BME280;27734;47.028;28.820;2023-06-19T05:56:47;100340.61;;;19.60;89.23
42067;BME280;27734;47.028;28.820;2023-06-19T05:59:20;100334.38;;;19.67;89.82
42067;BME280;27734;47.028;28.820;2023-06-19T06:01:51;100336.13;;;19.68;89.98
42067;BME280;27734;47.028;28.820;2023-06-19T06:04:23;100337.02;;;19.71;89.99
42067;BME280;27734;47.028;28.820;2023-06-19T06:06:54;100338.77;;;19.74;89.26
42067;BME280;27734;47.028;28.820;2023-06-19T06:09:26;100339.67;;;19.74;89.67
42067;BME280;27734;47.028;28.820;2023-06-19T06:11:57;100337.00;;;19.76;89.83
42067;BME280;27734;47.028;28.820;2023-06-19T06:14:29;100337.91;;;19.77;89.93
42067;BME280;27734;47.028;28.820;2023-06-19T06:17:02;100337.02;;;19.74;90.20
42067;BME280;27734;47.028;28.820;2023-06-19T06:19:35;100337.02;;;19.71;89.54
42067;BME280;27734;47.028;28.820;2023-06-19T06:22:10;100337.90;;;19.72;90.25
42067;BME280;27734;47.028;28.820;2023-06-19T06:24:46;100336.13;;;19.69;90.43
42067;BME280;27734;47.028;28.820;2023-06-19T06:27:23;100334.38;;;19.68;90.87
42067;BME280;27734;47.028;28.820;2023-06-19T06:29:55;100332.59;;;19.67;91.36
42067;BME280;27734;47.028;28.820;2023-06-19T06:32:36;100329.05;;;19.68;91.12
42067;BME280;27734;47.028;28.820;2023-06-19T06:35:08;100326.37;;;19.73;91.11
42067;BME280;27734;47.028;28.820;2023-06-19T06:37:40;100330.80;;;19.79;91.15
42067;BME280;27734;47.028;28.820;2023-06-19T06:40:13;100322.78;;;19.85;91.70
42067;BME280;27734;47.028;28.820;2023-06-19T06:42:46;100325.39;;;19.94;90.93
42067;BME280;27734;47.028;28.820;2023-06-19T06:45:19;100324.47;;;20.01;92.04
42067;BME280;27734;47.028;28.820;2023-06-19T06:47:51;100318.27;;;20.01;91.86
42067;BME280;27734;47.028;28.820;2023-06-19T06:50:23;100316.48;;;20.01;92.13
42067;BME280;27734;47.028;28.820;2023-06-19T06:52:54;100313.81;;;20.03;92.19
42067;BME280;27734;47.028;28.820;2023-06-19T06:55:30;100311.14;;;20.04;92.57
42067;BME280;27734;47.028;28.820;2023-06-19T06:58:04;100307.53;;;20.10;92.57
42067;BME280;27734;47.028;28.820;2023-06-19T07:00:36;100317.27;;;20.16;92.33
42067;BME280;27734;47.028;28.820;2023-06-19T07:03:08;100315.45;;;20.22;92.12
42067;BME280;27734;47.028;28.820;2023-06-19T07:05:39;100307.40;;;20.30;92.90
42067;BME280;27734;47.028;28.820;2023-06-19T07:08:11;100304.70;;;20.35;92.83
42067;BME280;27734;47.028;28.820;2023-06-19T07:10:45;100309.13;;;20.37;91.78
42067;BME280;27734;47.028;28.820;2023-06-19T07:13:17;100308.27;;;20.35;92.89
42067;BME280;27734;47.028;28.820;2023-06-19T07:15:48;100308.27;;;20.35;92.21
42067;BME280;27734;47.028;28.820;2023-06-19T07:18:20;100311.77;;;20.42;92.97
42067;BME280;27734;47.028;28.820;2023-06-19T07:20:53;100298.41;;;20.46;92.17
42067;BME280;27734;47.028;28.820;2023-06-19T07:23:29;100305.42;;;20.55;92.81
42067;BME280;27734;47.028;28.820;2023-06-19T07:26:02;100314.27;;;20.62;91.47
42067;BME280;27734;47.028;28.820;2023-06-19T07:28:33;100292.91;;;20.70;92.59
42067;BME280;27734;47.028;28.820;2023-06-19T07:31:06;100293.74;;;20.75;92.79
42067;BME280;27734;47.028;28.820;2023-06-19T07:33:38;100294.60;;;20.77;91.73
42067;BME280;27734;47.028;28.820;2023-06-19T07:36:10;100291.91;;;20.80;92.05
42067;BME280;27734;47.028;28.820;2023-06-19T07:38:44;100297.20;;;20.83;92.25
42067;BME280;27734;47.028;28.820;2023-06-19T07:41:17;100301.61;;;20.89;91.63
42067;BME280;27734;47.028;28.820;2023-06-19T07:43:49;100306.91;;;20.93;91.64
42067;BME280;27734;47.028;28.820;2023-06-19T07:46:34;100305.03;;;21.01;91.44
42067;BME280;27734;47.028;28.820;2023-06-19T07:49:10;100313.83;;;21.10;91.53
42067;BME280;27734;47.028;28.820;2023-06-19T07:51:47;100319.98;;;21.18;91.61
42067;BME280;27734;47.028;28.820;2023-06-19T07:54:27;100331.45;;;21.26;90.94
42067;BME280;27734;47.028;28.820;2023-06-19T07:56:59;100330.52;;;21.32;90.96
42067;BME280;27734;47.028;28.820;2023-06-19T07:59:32;100330.42;;;21.40;90.31
42067;BME280;27734;47.028;28.820;2023-06-19T08:02:05;100327.67;;;21.47;91.35
42067;BME280;27734;47.028;28.820;2023-06-19T08:04:37;100332.86;;;21.60;90.63
42067;BME280;27734;47.028;28.820;2023-06-19T08:07:08;100333.61;;;21.72;90.92
42067;BME280;27734;47.028;28.820;2023-06-19T08:09:40;100342.32;;;21.87;90.40
42067;BME280;27734;47.028;28.820;2023-06-19T08:12:13;100345.66;;;22.03;90.13
42067;BME280;27734;47.028;28.820;2023-06-19T08:14:43;100340.14;;;22.15;88.37
42067;BME280;27734;47.028;28.820;2023-06-19T08:17:15;100335.47;;;22.30;89.24
42067;BME280;27734;47.028;28.820;2023-06-19T08:19:46;100325.63;;;22.36;88.50
42067;BME280;27734;47.028;28.820;2023-06-19T08:24:55;100318.36;;;22.44;88.09
42067;BME280;27734;47.028;28.820;2023-06-19T08:27:27;100327.98;;;22.56;88.09
42067;BME280;27734;47.028;28.820;2023-06-19T08:30:00;100331.40;;;22.65;88.12
42067;BME280;27734;47.028;28.820;2023-06-19T08:32:33;100336.75;;;22.65;87.66
42067;BME280;27734;47.028;28.820;2023-06-19T08:35:07;100334.97;;;22.64;87.15
42067;BME280;27734;47.028;28.820;2023-06-19T08:37:38;100342.20;;;22.58;87.17
42067;BME280;27734;47.028;28.820;2023-06-19T08:40:13;100340.47;;;22.54;87.09
42067;BME280;27734;47.028;28.820;2023-06-19T08:42:45;100339.64;;;22.51;87.02
42067;BME280;27734;47.028;28.820;2023-06-19T08:45:16;100339.72;;;22.46;87.07
42067;BME280;27734;47.028;28.820;2023-06-19T08:47:50;100337.14;;;22.40;86.63
42067;BME280;27734;47.028;28.820;2023-06-19T08:50:28;100339.98;;;22.26;85.79
42067;BME280;27734;47.028;28.820;2023-06-19T08:53:00;100339.20;;;22.19;86.57
42067;BME280;27734;47.028;28.820;2023-06-19T08:55:32;100335.67;;;22.16;86.21
42067;BME280;27734;47.028;28.820;2023-06-19T08:58:04;100342.86;;;22.12;86.34
42067;BME280;27734;47.028;28.820;2023-06-19T09:00:36;100350.85;;;22.14;85.84
42067;BME280;27734;47.028;28.820;2023-06-19T09:03:07;100343.81;;;22.10;85.47
42067;BME280;27734;47.028;28.820;2023-06-19T09:05:44;100342.84;;;22.14;85.65
42067;BME280;27734;47.028;28.820;2023-06-19T09:08:21;100329.39;;;22.20;85.10
42067;BME280;27734;47.028;28.820;2023-06-19T09:11:01;100328.37;;;22.29;84.87
42067;BME280;27734;47.028;28.820;2023-06-19T09:13:33;100336.27;;;22.39;85.18
42067;BME280;27734;47.028;28.820;2023-06-19T09:16:12;100344.12;;;22.50;85.05
42067;BME280;27734;47.028;28.820;2023-06-19T09:18:48;100345.62;;;22.67;85.15
42067;BME280;27734;47.028;28.820;2023-06-19T09:21:22;100354.07;;;22.93;84.62
42067;BME280;27734;47.028;28.820;2023-06-19T09:24:08;100347.24;;;23.28;85.23
42067;BME280;27734;47.028;28.820;2023-06-19T09:26:46;100346.48;;;23.67;84.98
42067;BME280;27734;47.028;28.820;2023-06-19T09:29:23;100347.80;;;23.90;83.43
42067;BME280;27734;47.028;28.820;2023-06-19T09:32:01;100336.91;;;23.97;82.92
42067;BME280;27734;47.028;28.820;2023-06-19T09:34:40;100342.14;;;24.03;82.22
42067;BME280;27734;47.028;28.820;2023-06-19T09:37:12;100338.66;;;24.00;82.07
42067;BME280;27734;47.028;28.820;2023-06-19T09:39:46;100345.77;;;24.01;82.01
42067;BME280;27734;47.028;28.820;2023-06-19T09:42:29;100340.40;;;24.01;81.62
42067;BME280;27734;47.028;28.820;2023-06-19T09:45:04;100341.44;;;23.95;81.17
42067;BME280;27734;47.028;28.820;2023-06-19T09:47:42;100328.34;;;23.80;80.33
42067;BME280;27734;47.028;28.820;2023-06-19T09:50:17;100320.50;;;23.71;80.19
42067;BME280;27734;47.028;28.820;2023-06-19T09:52:55;100322.41;;;23.65;80.52
42067;BME280;27734;47.028;28.820;2023-06-19T09:55:32;100319.79;;;23.62;80.35
42067;BME280;27734;47.028;28.820;2023-06-19T09:58:05;100313.69;;;23.54;79.95
42067;BME280;27734;47.028;28.820;2023-06-19T10:00:37;100311.17;;;23.46;79.83
42067;BME280;27734;47.028;28.820;2023-06-19T10:03:14;100302.45;;;23.37;79.96
42067;BME280;27734;47.028;28.820;2023-06-19T10:05:59;100305.25;;;23.30;79.46
42067;BME280;27734;47.028;28.820;2023-06-19T10:08:45;100310.75;;;23.23;79.55
42067;BME280;27734;47.028;28.820;2023-06-19T10:11:18;100302.03;;;23.13;79.33
42067;BME280;27734;47.028;28.820;2023-06-19T10:13:54;100305.74;;;23.03;79.31
42067;BME280;27734;47.028;28.820;2023-06-19T10:16:36;100318.34;;;22.97;80.10
42067;BME280;27734;47.028;28.820;2023-06-19T10:19:15;100324.50;;;23.01;79.61
42067;BME280;27734;47.028;28.820;2023-06-19T10:21:49;100329.83;;;23.03;79.31
42067;BME280;27734;47.028;28.820;2023-06-19T10:24:22;100325.49;;;22.97;79.68
42067;BME280;27734;47.028;28.820;2023-06-19T10:27:02;100323.75;;;22.94;79.65
42067;BME280;27734;47.028;28.820;2023-06-19T10:29:41;100323.80;;;22.91;79.81
42067;BME280;27734;47.028;28.820;2023-06-19T10:32:12;100322.02;;;22.90;79.87
42067;BME280;27734;47.028;28.820;2023-06-19T10:34:46;100330.05;;;22.90;79.81
42067;BME280;27734;47.028;28.820;2023-06-19T10:37:20;100324.78;;;22.86;79.19
42067;BME280;27734;47.028;28.820;2023-06-19T10:40:08;100323.03;;;22.85;79.86
42067;BME280;27734;47.028;28.820;2023-06-19T10:42:41;100323.88;;;22.87;79.72
42067;BME280;27734;47.028;28.820;2023-06-19T10:45:16;100327.42;;;22.87;79.43
42067;BME280;27734;47.028;28.820;2023-06-19T10:47:51;100329.25;;;22.85;79.53
42067;BME280;27734;47.028;28.820;2023-06-19T10:50:35;100331.98;;;22.82;79.27
42067;BME280;27734;47.028;28.820;2023-06-19T10:53:30;100328.47;;;22.80;79.50
42067;BME280;27734;47.028;28.820;2023-06-19T10:56:05;100332.04;;;22.79;79.54
42067;BME280;27734;47.028;28.820;2023-06-19T10:58:46;100332.12;;;22.74;79.24
42067;BME280;27734;47.028;28.820;2023-06-19T11:01:19;100335.66;;;22.75;79.53
42067;BME280;27734;47.028;28.820;2023-06-19T11:03:58;100330.34;;;22.73;79.40
42067;BME280;27734;47.028;28.820;2023-06-19T11:06:33;100329.42;;;22.76;79.49
42067;BME280;27734;47.028;28.820;2023-06-19T11:09:12;100336.52;;;22.78;79.61
42067;BME280;27734;47.028;28.820;2023-06-19T11:11:46;100340.91;;;22.81;79.19
42067;BME280;27734;47.028;28.820;2023-06-19T11:14:18;100340.01;;;22.82;79.61
42067;BME280;27734;47.028;28.820;2023-06-19T11:16:50;100328.30;;;22.89;80.02
42067;BME280;27734;47.028;28.820;2023-06-19T11:19:24;100330.81;;;22.98;79.78
42067;BME280;27734;47.028;28.820;2023-06-19T11:22:04;100342.20;;;23.11;79.99
42067;BME280;27734;47.028;28.820;2023-06-19T11:24:42;100338.30;;;23.28;79.19
42067;BME280;27734;47.028;28.820;2023-06-19T11:27:20;100336.14;;;23.48;79.77
42067;BME280;27734;47.028;28.820;2023-06-19T11:29:58;100332.12;;;23.69;79.97
42067;BME280;27734;47.028;28.820;2023-06-19T11:32:37;100340.64;;;23.90;79.49
42067;BME280;27734;47.028;28.820;2023-06-19T11:35:22;100327.94;;;24.00;79.28
42067;BME280;27734;47.028;28.820;2023-06-19T11:37:54;100329.68;;;24.01;79.26
42067;BME280;27734;47.028;28.820;2023-06-19T11:40:26;100324.28;;;24.02;79.51
42067;BME280;27734;47.028;28.820;2023-06-19T11:43:07;100316.31;;;23.99;79.72
42067;BME280;27734;47.028;28.820;2023-06-19T11:45:49;100316.45;;;23.93;79.71
42067;BME280;27734;47.028;28.820;2023-06-19T11:48:27;100307.75;;;23.82;79.81
42067;BME280;27734;47.028;28.820;2023-06-19T11:51:00;100304.27;;;23.78;79.81
42067;BME280;27734;47.028;28.820;2023-06-19T11:53:35;100301.52;;;23.81;80.28
42067;BME280;27734;47.028;28.820;2023-06-19T11:56:08;100289.89;;;23.81;80.04
42067;BME280;27734;47.028;28.820;2023-06-19T11:58:44;100284.37;;;23.90;80.72
42067;BME280;27734;47.028;28.820;2023-06-19T12:01:18;100273.51;;;23.96;80.67
42067;BME280;27734;47.028;28.820;2023-06-19T12:03:54;100271.70;;;23.98;80.86
42067;BME280;27734;47.028;28.820;2023-06-19T12:06:34;100265.25;;;24.05;80.80
42067;BME280;27734;47.028;28.820;2023-06-19T12:09:07;100261.67;;;24.07;80.98
42067;BME280;27734;47.028;28.820;2023-06-19T12:11:47;100257.11;;;24.10;80.90
42067;BME280;27734;47.028;28.820;2023-06-19T12:14:19;100246.05;;;24.24;80.96
42067;BME280;27734;47.028;28.820;2023-06-19T12:16:54;100233.41;;;24.29;81.10
42067;BME280;27734;47.028;28.820;2023-06-19T12:19:26;100228.75;;;24.37;80.79
42067;BME280;27734;47.028;28.820;2023-06-19T12:21:58;100227.69;;;24.43;81.02
42067;BME280;27734;47.028;28.820;2023-06-19T12:24:39;100219.92;;;24.32;80.44
42067;BME280;27734;47.028;28.820;2023-06-19T12:27:10;100225.28;;;24.32;80.55
42067;BME280;27734;47.028;28.820;2023-06-19T12:29:42;100213.69;;;24.32;80.79
42067;BME280;27734;47.028;28.820;2023-06-19T12:32:14;100215.50;;;24.31;80.30
42067;BME280;27734;47.028;28.820;2023-06-19T12:34:48;100218.06;;;24.36;80.52
42067;BME280;27734;47.028;28.820;2023-06-19T12:37:19;100200.91;;;24.41;80.40
42067;BME280;27734;47.028;28.820;2023-06-19T12:39:52;100212.30;;;24.51;80.20
42067;BME280;27734;47.028;28.820;2023-06-19T12:42:23;100206.89;;;24.53;79.93
42067;BME280;27734;47.028;28.820;2023-06-19T12:44:56;100204.22;;;24.53;79.35
42067;BME280;27734;47.028;28.820;2023-06-19T12:47:30;100208.59;;;24.55;79.12
42067;BME280;27734;47.028;28.820;2023-06-19T12:50:04;100209.25;;;24.67;78.63
42067;BME280;27734;47.028;28.820;2023-06-19T12:52:35;100217.17;;;24.71;78.31
42067;BME280;27734;47.028;28.820;2023-06-19T12:55:10;100219.52;;;24.82;77.98
42067;BME280;27734;47.028;28.820;2023-06-19T12:57:43;100227.28;;;24.93;77.29
42067;BME280;27734;47.028;28.820;2023-06-19T13:00:17;100221.34;;;25.13;77.73
42067;BME280;27734;47.028;28.820;2023-06-19T13:02:50;100228.09;;;25.28;77.20
42067;BME280;27734;47.028;28.820;2023-06-19T13:05:22;100232.36;;;25.35;76.59
42067;BME280;27734;47.028;28.820;2023-06-19T13:08:02;100232.31;;;25.37;75.36
42067;BME280;27734;47.028;28.820;2023-06-19T13:10:36;100224.98;;;25.43;75.65
42067;BME280;27734;47.028;28.820;2023-06-19T13:13:08;100230.13;;;25.51;74.49
42067;BME280;27734;47.028;28.820;2023-06-19T13:15:42;100224.42;;;25.62;74.03